Time;durP1;ratioP1;P1;durP2;ratioP2;P2;SDS_P1;SDS_P2;PMS_P1;PMS_P2;Temp;Humidity;BMP_temperature;BMP_pressure;BME280_temperature;BME280_humidity;BME280_pressure;Samples;Min_cycle;Max_cycle;Signal;HPM_P1;HPM_P2
2023/12/02 00:01:36;;;;;;;;;;;;;;;-2.44;76.10;100422.16;4218131;28;20007;-71
2023/12/02 00:03:38;;;;;;;;;;;;;;;-2.44;76.10;100427.44;4219634;28;20019;-71
2023/12/02 00:05:39;;;;;;;;;;;;;;;-2.46;75.92;100422.25;4219800;28;20007;-71
2023/12/02 00:07:42;;;;;;;;;;;;;;;-2.46;75.79;100431.97;4218235;28;20906;-71
2023/12/02 00:09:44;;;;;;;;;;;;;;;-2.48;75.70;100425.94;4220201;28;20018;-70
2023/12/02 00:11:49;;;;;;;;;;;;;;;-2.47;75.64;100425.00;4218815;28;20019;-71
2023/12/02 00:13:51;;;;;;;;;;;;;;;-2.49;75.83;100424.22;4218861;28;20023;-70
2023/12/02 00:15:52;;;;;;;;;;;;;;;-2.54;75.72;100422.75;4218748;28;20567;-71
2023/12/02 00:17:54;;;;;;;;;;;;;;;-2.51;75.81;100423.50;4219908;28;20023;-70
2023/12/02 00:19:56;;;;;;;;;;;;;;;-2.50;76.11;100417.28;4219463;28;20572;-70
2023/12/02 00:21:58;;;;;;;;;;;;;;;-2.51;76.26;100420.84;4220354;28;20015;-70
2023/12/02 00:24:01;;;;;;;;;;;;;;;-2.47;76.56;100414.44;4219651;28;20007;-70
2023/12/02 00:26:04;;;;;;;;;;;;;;;-2.47;76.33;100411.78;4219608;28;20014;-71
2023/12/02 00:28:06;;;;;;;;;;;;;;;-2.49;76.24;100414.53;4218918;28;20521;-71
2023/12/02 00:30:08;;;;;;;;;;;;;;;-2.48;76.18;100410.06;4218826;28;20098;-71
2023/12/02 00:32:09;;;;;;;;;;;;;;;-2.48;76.17;100402.13;4200919;28;20023;-71
2023/12/02 00:34:11;;;;;;;;;;;;;;;-2.48;76.16;100396.84;4220002;28;19981;-71
2023/12/02 00:36:13;;;;;;;;;;;;;;;-2.51;76.04;100395.25;4219867;28;20330;-70
2023/12/02 00:38:15;;;;;;;;;;;;;;;-2.53;75.83;100400.63;4220752;28;20027;-70
2023/12/02 00:40:18;;;;;;;;;;;;;;;-2.55;75.96;100391.13;4222964;28;20019;-70
2023/12/02 00:42:20;;;;;;;;;;;;;;;-2.56;75.67;100387.63;4222487;28;20014;-70
2023/12/02 00:44:21;;;;;;;;;;;;;;;-2.55;75.82;100399.06;4222813;28;20023;-71
2023/12/02 00:46:23;;;;;;;;;;;;;;;-2.55;76.05;100401.72;4221456;28;20042;-68
2023/12/02 00:48:25;;;;;;;;;;;;;;;-2.57;75.74;100407.09;4222610;28;20022;-71
2023/12/02 00:50:26;;;;;;;;;;;;;;;-2.59;75.84;100400.19;4222781;28;20334;-71
2023/12/02 00:52:28;;;;;;;;;;;;;;;-2.58;75.94;100407.19;4223420;28;19935;-71
2023/12/02 00:54:33;;;;;;;;;;;;;;;-2.59;75.61;100406.31;4221482;28;20019;-71
2023/12/02 00:56:37;;;;;;;;;;;;;;;-2.61;76.11;100396.81;4221879;28;19991;-70
2023/12/02 00:58:39;;;;;;;;;;;;;;;-2.59;76.69;100398.41;4222688;28;20375;-71
2023/12/02 01:00:41;;;;;;;;;;;;;;;-2.62;76.50;100414.47;4222469;28;20394;-71
2023/12/02 01:02:43;;;;;;;;;;;;;;;-2.61;76.40;100417.97;4220860;28;20035;-71
2023/12/02 01:04:45;;;;;;;;;;;;;;;-2.61;76.22;100426.75;4222879;28;20026;-71
2023/12/02 01:06:47;;;;;;;;;;;;;;;-2.61;76.05;100423.25;4221554;28;20035;-71
2023/12/02 01:08:49;;;;;;;;;;;;;;;-2.66;76.04;100410.34;4222063;28;19931;-70
2023/12/02 01:10:51;;;;;;;;;;;;;;;-2.66;75.92;100420.91;4221257;28;20022;-71
2023/12/02 01:12:54;;;;;;;;;;;;;;;-2.64;75.86;100415.53;4222077;28;20007;-71
2023/12/02 01:14:56;;;;;;;;;;;;;;;-2.64;75.72;100421.66;4221130;28;20003;-70
2023/12/02 01:16:58;;;;;;;;;;;;;;;-2.67;75.59;100413.91;4222469;28;20030;-70
2023/12/02 01:19:00;;;;;;;;;;;;;;;-2.72;75.69;100423.94;4221550;28;20368;-70
2023/12/02 01:21:02;;;;;;;;;;;;;;;-2.69;75.63;100422.91;4221811;28;20457;-70
2023/12/02 01:23:04;;;;;;;;;;;;;;;-2.63;76.41;100428.66;4221388;28;20019;-70
2023/12/02 01:25:06;;;;;;;;;;;;;;;-2.66;76.21;100430.66;4221974;28;20031;-70
2023/12/02 01:27:08;;;;;;;;;;;;;;;-2.66;75.97;100431.50;4219488;28;20023;-71
2023/12/02 01:29:12;;;;;;;;;;;;;;;-2.68;75.54;100421.94;4221432;28;19930;-71
2023/12/02 01:31:14;;;;;;;;;;;;;;;-2.71;75.51;100423.00;4221520;28;20454;-71
2023/12/02 01:33:16;;;;;;;;;;;;;;;-2.70;75.39;100426.50;4221366;28;20035;-71
2023/12/02 01:35:18;;;;;;;;;;;;;;;-2.72;75.48;100434.53;4221005;28;20461;-71
2023/12/02 01:37:19;;;;;;;;;;;;;;;-2.74;75.63;100431.97;4221464;28;20026;-71
2023/12/02 01:39:21;;;;;;;;;;;;;;;-2.74;75.44;100431.97;4221986;28;20006;-71
2023/12/02 01:41:23;;;;;;;;;;;;;;;-2.79;75.43;100430.56;4220804;28;20020;-71
2023/12/02 01:43:26;;;;;;;;;;;;;;;-2.81;75.67;100420.09;4218467;28;20028;-71
2023/12/02 01:45:29;;;;;;;;;;;;;;;-2.81;75.65;100406.88;4221648;28;20051;-71
2023/12/02 01:47:31;;;;;;;;;;;;;;;-2.83;75.56;100414.06;4220193;28;20023;-71
2023/12/02 01:49:33;;;;;;;;;;;;;;;-2.83;75.56;100410.59;4220917;28;19927;-71
2023/12/02 01:51:35;;;;;;;;;;;;;;;-2.86;75.55;100413.44;4220334;28;20386;-70
2023/12/02 01:53:37;;;;;;;;;;;;;;;-2.87;75.61;100417.84;4221353;28;20031;-69
2023/12/02 01:55:38;;;;;;;;;;;;;;;-2.86;75.69;100422.19;4219328;28;20382;-70
2023/12/02 01:57:40;;;;;;;;;;;;;;;-2.86;75.52;100422.19;4222171;28;19969;-71
2023/12/02 01:59:45;;;;;;;;;;;;;;;-2.88;75.48;100432.03;4220387;28;20023;-70
2023/12/02 02:01:48;;;;;;;;;;;;;;;-2.91;75.42;100438.34;4235710;27;20018;-70
2023/12/02 02:03:50;;;;;;;;;;;;;;;-2.91;75.36;100430.41;4221635;28;20010;-71
2023/12/02 02:05:52;;;;;;;;;;;;;;;-2.90;75.36;100440.06;4221107;28;20553;-70
2023/12/02 02:07:53;;;;;;;;;;;;;;;-2.93;75.16;100439.38;4220734;28;20019;-71
2023/12/02 02:09:55;;;;;;;;;;;;;;;-2.93;75.20;100437.59;4221357;28;19985;-70
2023/12/02 02:11:57;;;;;;;;;;;;;;;-2.97;75.08;100435.25;4220339;28;20030;-70
2023/12/02 02:13:58;;;;;;;;;;;;;;;-3.02;75.00;100440.81;4220614;28;20398;-70
2023/12/02 02:16:00;;;;;;;;;;;;;;;-3.03;75.31;100448.84;4221279;28;19935;-71
2023/12/02 02:18:04;;;;;;;;;;;;;;;-2.97;75.41;100451.94;4220871;28;20361;-70
2023/12/02 02:20:08;;;;;;;;;;;;;;;-2.99;75.15;100445.09;4220823;28;20026;-69
2023/12/02 02:22:11;;;;;;;;;;;;;;;-3.01;75.26;100442.53;4221477;28;20015;-71
2023/12/02 02:24:13;;;;;;;;;;;;;;;-3.01;75.30;100434.63;4220760;28;20014;-71
2023/12/02 02:26:15;;;;;;;;;;;;;;;-2.99;75.39;100431.88;4219857;28;20535;-71
2023/12/02 02:28:20;;;;;;;;;;;;;;;-2.99;75.21;100437.16;4220999;28;20014;-71
2023/12/02 02:30:22;;;;;;;;;;;;;;;-3.03;75.08;100433.00;4220487;28;20421;-70
2023/12/02 02:32:24;;;;;;;;;;;;;;;-3.04;74.94;100434.81;4219557;28;20027;-71
2023/12/02 02:34:26;;;;;;;;;;;;;;;-3.02;75.17;100426.78;4219592;28;20482;-70
2023/12/02 02:36:28;;;;;;;;;;;;;;;-3.04;74.92;100440.09;4220130;28;20010;-70
2023/12/02 02:38:31;;;;;;;;;;;;;;;-3.07;74.82;100429.72;4219849;28;20014;-70
2023/12/02 02:40:34;;;;;;;;;;;;;;;-3.05;74.91;100427.81;4202801;28;20023;-71
2023/12/02 02:42:36;;;;;;;;;;;;;;;-3.04;75.02;100424.22;4219913;28;20030;-71
2023/12/02 02:44:37;;;;;;;;;;;;;;;-3.06;75.00;100418.19;4220868;28;20014;-71
2023/12/02 02:46:39;;;;;;;;;;;;;;;-3.10;74.89;100414.91;4221053;28;20023;-71
2023/12/02 02:48:41;;;;;;;;;;;;;;;-3.10;75.21;100412.25;4220589;28;20441;-70
2023/12/02 02:50:44;;;;;;;;;;;;;;;-3.12;75.34;100415.91;4220641;28;19961;-71
2023/12/02 02:52:46;;;;;;;;;;;;;;;-3.12;75.40;100408.88;4219366;28;20023;-70
2023/12/02 02:54:49;;;;;;;;;;;;;;;-3.13;75.39;100406.31;4202661;28;20016;-71
2023/12/02 02:56:52;;;;;;;;;;;;;;;-3.13;75.35;100406.31;4220470;28;20450;-71
2023/12/02 02:58:54;;;;;;;;;;;;;;;-3.16;75.33;100404.72;4220887;28;19933;-71
2023/12/02 03:00:56;;;;;;;;;;;;;;;-3.17;75.34;100407.44;4219061;28;20015;-71
2023/12/02 03:02:58;;;;;;;;;;;;;;;-3.18;75.25;100424.22;4220300;28;20010;-70
2023/12/02 03:05:00;;;;;;;;;;;;;;;-3.18;75.38;100421.59;4219975;28;20342;-70
2023/12/02 03:07:02;;;;;;;;;;;;;;;-3.17;75.31;100418.84;4219638;28;20369;-70
2023/12/02 03:09:05;;;;;;;;;;;;;;;-3.15;75.32;100424.91;4220059;28;20022;-71
2023/12/02 03:11:07;;;;;;;;;;;;;;;-3.15;75.44;100424.91;4221237;28;19989;-70
2023/12/02 03:13:09;;;;;;;;;;;;;;;-3.16;75.24;100425.00;4219795;28;20360;-70
2023/12/02 03:15:12;;;;;;;;;;;;;;;-3.16;75.33;100427.66;4219302;28;20023;-70
2023/12/02 03:17:14;;;;;;;;;;;;;;;-3.19;75.15;100419.91;4219446;28;20018;-70
2023/12/02 03:19:16;;;;;;;;;;;;;;;-3.21;75.25;100420.00;4221407;28;20027;-70
2023/12/02 03:21:19;;;;;;;;;;;;;;;-3.21;75.42;100430.56;4198281;28;20478;-71
2023/12/02 03:23:21;;;;;;;;;;;;;;;-3.21;75.54;100435.00;4219629;28;20019;-70
2023/12/02 03:25:23;;;;;;;;;;;;;;;-3.18;75.73;100426.88;4218824;28;20028;-71
2023/12/02 03:27:26;;;;;;;;;;;;;;;-3.21;75.62;100427.06;4219891;28;20018;-71
2023/12/02 03:29:28;;;;;;;;;;;;;;;-3.24;75.50;100435.19;4220975;28;20402;-70
2023/12/02 03:31:30;;;;;;;;;;;;;;;-3.24;75.45;100432.53;4220069;28;20481;-70
2023/12/02 03:33:31;;;;;;;;;;;;;;;-3.29;75.54;100436.34;4220990;28;20022;-70
2023/12/02 03:35:33;;;;;;;;;;;;;;;-3.28;75.58;100435.38;4219345;28;19977;-70
2023/12/02 03:37:35;;;;;;;;;;;;;;;-3.24;75.50;100443.09;4220900;28;20462;-71
2023/12/02 03:39:37;;;;;;;;;;;;;;;-3.25;75.40;100439.63;4220738;28;20042;-70
2023/12/02 03:41:40;;;;;;;;;;;;;;;-3.23;75.29;100437.72;4217719;28;20015;-71
2023/12/02 03:43:43;;;;;;;;;;;;;;;-3.32;74.78;100428.59;4220064;28;20055;-70
2023/12/02 03:45:46;;;;;;;;;;;;;;;-3.39;74.76;100423.78;4217883;28;20030;-70
2023/12/02 03:47:48;;;;;;;;;;;;;;;-3.41;74.73;100430.97;4219611;28;20026;-71
2023/12/02 03:49:50;;;;;;;;;;;;;;;-3.40;74.76;100437.94;4220149;28;20027;-71
2023/12/02 03:51:52;;;;;;;;;;;;;;;-3.40;74.95;100435.28;4220088;28;20368;-71
2023/12/02 03:53:54;;;;;;;;;;;;;;;-3.45;74.88;100441.72;4219518;28;20011;-71
2023/12/02 03:55:56;;;;;;;;;;;;;;;-3.48;74.86;100433.13;4220021;28;20020;-71
2023/12/02 03:57:58;;;;;;;;;;;;;;;-3.52;74.81;100450.13;4220413;28;20027;-71
2023/12/02 04:00:06;;;;;;;;;;;;;;;-3.59;74.85;100451.41;4218749;28;19947;-70
2023/12/02 04:02:12;;;;;;;;;;;;;;;-3.58;75.07;100456.59;4220070;28;20014;-70
2023/12/02 04:04:15;;;;;;;;;;;;;;;-3.64;75.12;100460.47;4219562;28;20452;-71
2023/12/02 04:06:17;;;;;;;;;;;;;;;-3.60;75.25;100460.28;4219003;28;20071;-71
2023/12/02 04:08:19;;;;;;;;;;;;;;;-3.63;75.35;100461.31;4219658;28;20023;-70
2023/12/02 04:10:21;;;;;;;;;;;;;;;-3.62;75.38;100455.13;4220553;28;20018;-69
2023/12/02 04:12:23;;;;;;;;;;;;;;;-3.63;75.77;100456.03;4221472;28;19986;-71
2023/12/02 04:14:25;;;;;;;;;;;;;;;-3.62;75.72;100452.47;4222783;28;20011;-70
2023/12/02 04:16:28;;;;;;;;;;;;;;;-3.63;75.87;100445.47;4223922;28;20028;-71
2023/12/02 04:18:30;;;;;;;;;;;;;;;-3.64;75.78;100441.13;4221167;28;19963;-71
2023/12/02 04:20:32;;;;;;;;;;;;;;;-3.65;75.74;100428.91;4220084;28;20011;-71
2023/12/02 04:22:33;;;;;;;;;;;;;;;-3.70;75.60;100431.81;4222900;28;20016;-71
2023/12/02 04:24:35;;;;;;;;;;;;;;;-3.65;75.87;100423.63;4222288;28;20031;-70
2023/12/02 04:26:37;;;;;;;;;;;;;;;-3.63;75.75;100422.56;4222708;28;20026;-72
2023/12/02 04:28:39;;;;;;;;;;;;;;;-3.63;75.75;100413.81;4222394;28;19970;-71
2023/12/02 04:30:41;;;;;;;;;;;;;;;-3.64;75.71;100422.66;4222960;28;20046;-72
2023/12/02 04:32:44;;;;;;;;;;;;;;;-3.65;75.73;100428.91;4221747;28;19924;-71
2023/12/02 04:34:47;;;;;;;;;;;;;;;-3.65;75.75;100437.66;4222739;28;20026;-72
2023/12/02 04:36:49;;;;;;;;;;;;;;;-3.65;75.76;100429.75;4221281;28;20018;-71
2023/12/02 04:38:51;;;;;;;;;;;;;;;-3.66;75.71;100428.03;4221929;28;20030;-71
2023/12/02 04:40:53;;;;;;;;;;;;;;;-3.67;75.55;100420.19;4222513;28;20018;-70
2023/12/02 04:42:54;;;;;;;;;;;;;;;-3.69;75.69;100415.03;4220967;28;20022;-72
2023/12/02 04:44:56;;;;;;;;;;;;;;;-3.67;75.55;100418.44;4221760;28;20023;-71
2023/12/02 04:46:58;;;;;;;;;;;;;;;-3.67;75.52;100414.94;4222409;28;20372;-72
2023/12/02 04:49:01;;;;;;;;;;;;;;;-3.65;75.61;100418.34;4222834;28;20022;-71
2023/12/02 04:51:03;;;;;;;;;;;;;;;-3.68;75.41;100416.72;4222708;28;20022;-71
2023/12/02 04:53:05;;;;;;;;;;;;;;;-3.67;75.57;100425.47;4222013;28;20026;-71
2023/12/02 04:55:07;;;;;;;;;;;;;;;-3.65;75.63;100437.66;4222837;28;20014;-71
2023/12/02 04:57:08;;;;;;;;;;;;;;;-3.64;75.80;100438.50;4221649;28;20022;-71
2023/12/02 04:59:10;;;;;;;;;;;;;;;-3.62;75.85;100436.63;4222660;28;19979;-70
2023/12/02 05:01:12;;;;;;;;;;;;;;;-3.62;75.93;100449.84;4221918;28;20557;-69
2023/12/02 05:03:17;;;;;;;;;;;;;;;-3.61;75.86;100451.50;4222701;28;20862;-72
2023/12/02 05:05:20;;;;;;;;;;;;;;;-3.59;75.74;100457.53;4222361;28;20039;-71
2023/12/02 05:07:22;;;;;;;;;;;;;;;-3.59;75.74;100449.63;4222110;28;20027;-72
2023/12/02 05:09:25;;;;;;;;;;;;;;;-3.58;75.70;100464.53;4221145;28;19980;-72
2023/12/02 05:11:27;;;;;;;;;;;;;;;-3.57;75.64;100468.88;4222190;28;20015;-72
2023/12/02 05:13:29;;;;;;;;;;;;;;;-3.57;75.59;100470.63;4222469;28;19924;-73
2023/12/02 05:15:32;;;;;;;;;;;;;;;-3.57;75.37;100470.63;4221278;28;20111;-72
2023/12/02 05:17:33;;;;;;;;;;;;;;;-3.55;75.48;100469.63;4222592;28;20022;-72
2023/12/02 05:19:36;;;;;;;;;;;;;;;-3.53;75.57;100469.53;4222436;28;20768;-72
2023/12/02 05:21:39;;;;;;;;;;;;;;;-3.54;75.49;100471.31;4221658;28;20461;-72
2023/12/02 05:23:41;;;;;;;;;;;;;;;-3.55;75.42;100476.69;4219395;28;20014;-73
2023/12/02 05:25:43;;;;;;;;;;;;;;;-3.55;75.39;100476.69;4221712;28;20024;-71
2023/12/02 05:27:45;;;;;;;;;;;;;;;-3.55;75.40;100476.69;4222272;27;20386;-72
2023/12/02 05:29:46;;;;;;;;;;;;;;;-3.56;75.45;100488.19;4221883;28;19955;-72
2023/12/02 05:31:48;;;;;;;;;;;;;;;-3.55;75.37;100492.53;4219357;28;20046;-71
2023/12/02 05:33:50;;;;;;;;;;;;;;;-3.60;75.43;100484.91;4222229;28;19924;-73
2023/12/02 05:35:52;;;;;;;;;;;;;;;-3.68;75.38;100485.34;4220719;28;20027;-72
2023/12/02 05:37:55;;;;;;;;;;;;;;;-3.69;75.59;100490.72;4221802;28;20015;-72
2023/12/02 05:39:57;;;;;;;;;;;;;;;-3.67;75.80;100497.63;4222687;28;20093;-72
2023/12/02 05:41:59;;;;;;;;;;;;;;;-3.60;76.11;100499.88;4220667;28;20015;-72
2023/12/02 05:44:01;;;;;;;;;;;;;;;-3.59;75.84;100505.06;4221507;28;20015;-71
2023/12/02 05:46:03;;;;;;;;;;;;;;;-3.59;75.75;100504.22;4222631;28;20015;-73
2023/12/02 05:48:06;;;;;;;;;;;;;;;-3.57;75.77;100502.31;4221132;28;20026;-72
2023/12/02 05:50:08;;;;;;;;;;;;;;;-3.58;75.69;100501.47;4221782;28;20002;-72
2023/12/02 05:52:10;;;;;;;;;;;;;;;-3.55;75.71;100505.75;4221511;28;20027;-71
2023/12/02 05:54:13;;;;;;;;;;;;;;;-3.56;75.60;100501.38;4220357;28;19928;-73
2023/12/02 05:56:18;;;;;;;;;;;;;;;-3.63;75.34;100501.75;4220936;28;20026;-73
2023/12/02 05:58:20;;;;;;;;;;;;;;;-3.64;75.37;100507.13;4221862;28;20026;-72
2023/12/02 06:00:22;;;;;;;;;;;;;;;-3.68;75.58;100495.06;4221390;28;20018;-72
2023/12/02 06:02:25;;;;;;;;;;;;;;;-3.69;75.51;100496.84;4220633;28;20221;-72
2023/12/02 06:04:27;;;;;;;;;;;;;;;-3.71;75.56;100495.25;4221394;28;20054;-73
2023/12/02 06:06:28;;;;;;;;;;;;;;;-3.74;75.68;100504.19;4203179;28;20022;-72
2023/12/02 06:08:30;;;;;;;;;;;;;;;-3.77;75.69;100504.38;4220305;28;20838;-72
2023/12/02 06:10:33;;;;;;;;;;;;;;;-3.74;75.94;100503.34;4220847;28;20006;-71
2023/12/02 06:12:36;;;;;;;;;;;;;;;-3.75;76.11;100494.56;4219322;28;20019;-72
2023/12/02 06:14:39;;;;;;;;;;;;;;;-3.75;76.06;100499.00;4220637;28;19924;-71
2023/12/02 06:16:41;;;;;;;;;;;;;;;-3.73;76.09;100492.72;4220975;28;20023;-70
2023/12/02 06:18:43;;;;;;;;;;;;;;;-3.71;76.17;100493.47;4221051;28;20391;-72
2023/12/02 06:20:44;;;;;;;;;;;;;;;-3.70;76.17;100491.66;4221041;28;20527;-73
2023/12/02 06:22:47;;;;;;;;;;;;;;;-3.71;76.20;100495.25;4220671;28;20463;-73
2023/12/02 06:24:49;;;;;;;;;;;;;;;-3.71;76.24;100490.81;4220026;28;20031;-73
2023/12/02 06:26:52;;;;;;;;;;;;;;;-3.72;76.34;100494.38;4220054;28;20014;-73
2023/12/02 06:28:54;;;;;;;;;;;;;;;-3.72;76.44;100491.75;4220414;28;20026;-73
2023/12/02 06:30:57;;;;;;;;;;;;;;;-3.71;76.42;100489.97;4220894;28;20020;-73
2023/12/02 06:32:59;;;;;;;;;;;;;;;-3.70;76.51;100491.66;4220377;28;20408;-73
2023/12/02 06:35:01;;;;;;;;;;;;;;;-3.70;76.52;100491.66;4219861;28;20405;-71
2023/12/02 06:37:03;;;;;;;;;;;;;;;-3.70;76.37;100489.00;4219015;28;20452;-72
2023/12/02 06:39:07;;;;;;;;;;;;;;;-3.72;76.38;100489.09;4219463;28;20381;-73
2023/12/02 06:41:09;;;;;;;;;;;;;;;-3.70;76.37;100494.28;4219008;28;20496;-72
2023/12/02 06:43:13;;;;;;;;;;;;;;;-3.71;76.17;100503.16;4219551;28;19968;-71
2023/12/02 06:45:15;;;;;;;;;;;;;;;-3.71;76.25;100506.66;4220264;28;20010;-70
2023/12/02 06:47:17;;;;;;;;;;;;;;;-3.68;76.31;100506.47;4220613;28;20002;-71
2023/12/02 06:49:19;;;;;;;;;;;;;;;-3.67;76.06;100507.31;4220611;28;20059;-71
2023/12/02 06:51:24;;;;;;;;;;;;;;;-3.67;75.74;100507.31;4220505;28;20022;-71
2023/12/02 06:53:26;;;;;;;;;;;;;;;-3.65;75.87;100513.38;4220160;28;19962;-70
2023/12/02 06:55:31;;;;;;;;;;;;;;;-3.64;75.74;100507.13;4220821;28;19934;-69
2023/12/02 06:57:33;;;;;;;;;;;;;;;-3.63;75.82;100517.59;4220103;27;19999;-70
2023/12/02 06:59:36;;;;;;;;;;;;;;;-3.65;75.52;100513.38;4220551;28;20454;-70
2023/12/02 07:01:38;;;;;;;;;;;;;;;-3.64;75.71;100509.78;4220721;28;20014;-70
2023/12/02 07:03:39;;;;;;;;;;;;;;;-3.63;75.74;100519.41;4221188;27;20059;-70
2023/12/02 07:05:41;;;;;;;;;;;;;;;-3.63;75.60;100520.22;4219648;28;19972;-70
2023/12/02 07:07:43;;;;;;;;;;;;;;;-3.65;75.50;100526.56;4220469;28;20023;-71
2023/12/02 07:09:45;;;;;;;;;;;;;;;-3.67;75.49;100517.88;4218916;28;20023;-71
2023/12/02 07:11:47;;;;;;;;;;;;;;;-3.66;75.70;100517.78;4218456;28;20542;-71
2023/12/02 07:13:49;;;;;;;;;;;;;;;-3.65;75.85;100522.13;4218804;28;20553;-71
2023/12/02 07:15:52;;;;;;;;;;;;;;;-3.65;75.67;100530.03;4219532;28;19927;-70
2023/12/02 07:17:54;;;;;;;;;;;;;;;-3.67;75.81;100531.94;4219012;28;20023;-71
2023/12/02 07:19:56;;;;;;;;;;;;;;;-3.63;75.80;100530.78;4217989;28;19955;-71
2023/12/02 07:21:58;;;;;;;;;;;;;;;-3.63;75.71;100538.72;4219666;28;20030;-71
2023/12/02 07:24:00;;;;;;;;;;;;;;;-3.60;75.75;100534.19;4219528;28;20018;-71
2023/12/02 07:26:02;;;;;;;;;;;;;;;-3.60;75.55;100544.75;4220533;28;20426;-74
2023/12/02 07:28:05;;;;;;;;;;;;;;;-3.59;75.42;100547.28;4220035;28;20046;-73
2023/12/02 07:30:07;;;;;;;;;;;;;;;-3.58;75.47;100553.44;4219169;28;20321;-71
2023/12/02 07:32:11;;;;;;;;;;;;;;;-3.57;75.40;100549.84;4218792;28;20003;-74
2023/12/02 07:34:13;;;;;;;;;;;;;;;-3.58;75.34;100554.28;4219892;28;20011;-71
2023/12/02 07:36:14;;;;;;;;;;;;;;;-3.58;75.10;100553.44;4219591;28;20426;-73
2023/12/02 07:38:16;;;;;;;;;;;;;;;-3.56;75.70;100554.19;4219988;28;19927;-73
2023/12/02 07:40:18;;;;;;;;;;;;;;;-3.54;75.85;100552.31;4218789;28;20015;-74
2023/12/02 07:42:20;;;;;;;;;;;;;;;-3.52;75.98;100550.44;4218948;28;20452;-74
2023/12/02 07:44:22;;;;;;;;;;;;;;;-3.51;75.91;100557.41;4218724;28;20023;-72
2023/12/02 07:46:24;;;;;;;;;;;;;;;-3.49;75.64;100547.63;4221376;28;20492;-74
2023/12/02 07:48:27;;;;;;;;;;;;;;;-3.48;75.49;100546.66;4223002;28;20465;-73
2023/12/02 07:50:29;;;;;;;;;;;;;;;-3.47;75.50;100543.94;4223795;28;20453;-73
2023/12/02 07:52:31;;;;;;;;;;;;;;;-3.46;75.22;100552.72;4221534;28;20014;-73
2023/12/02 07:54:33;;;;;;;;;;;;;;;-3.47;75.10;100557.13;4220967;28;20011;-71
2023/12/02 07:56:36;;;;;;;;;;;;;;;-3.46;75.18;100563.28;4221556;28;20336;-72
2023/12/02 07:58:38;;;;;;;;;;;;;;;-3.46;75.09;100569.41;4221071;28;20011;-72
2023/12/02 08:00:40;;;;;;;;;;;;;;;-3.46;75.28;100568.56;4222218;28;20022;-72
2023/12/02 08:02:43;;;;;;;;;;;;;;;-3.46;75.33;100577.31;4220599;28;20342;-71
2023/12/02 08:04:47;;;;;;;;;;;;;;;-3.45;75.36;100575.53;4222684;28;20022;-71
2023/12/02 08:06:49;;;;;;;;;;;;;;;-3.48;75.33;100580.97;4221128;28;20035;-72
2023/12/02 08:08:53;;;;;;;;;;;;;;;-3.48;75.44;100573.94;4221594;28;20027;-73
2023/12/02 08:10:55;;;;;;;;;;;;;;;-3.47;75.43;100577.41;4222225;28;20018;-69
2023/12/02 08:12:57;;;;;;;;;;;;;;;-3.51;75.34;100566.19;4220673;28;20362;-71
2023/12/02 08:15:00;;;;;;;;;;;;;;;-3.54;75.34;100571.66;4221052;28;20014;-71
2023/12/02 08:17:02;;;;;;;;;;;;;;;-3.51;75.35;100575.88;4222484;28;19931;-71
2023/12/02 08:19:03;;;;;;;;;;;;;;;-3.53;75.51;100569.84;4222014;28;20426;-71
2023/12/02 08:21:07;;;;;;;;;;;;;;;-3.50;75.67;100581.06;4222318;28;20452;-72
2023/12/02 08:23:08;;;;;;;;;;;;;;;-3.47;75.79;100575.59;4223059;28;20022;-70
2023/12/02 08:25:11;;;;;;;;;;;;;;;-3.46;75.88;100579.13;4221258;28;19931;-71
2023/12/02 08:27:13;;;;;;;;;;;;;;;-3.46;75.73;100584.41;4221157;28;20007;-72
2023/12/02 08:29:15;;;;;;;;;;;;;;;-3.46;75.81;100585.25;4222523;28;20038;-71
2023/12/02 08:31:17;;;;;;;;;;;;;;;-3.46;76.17;100577.31;4220531;28;20026;-71
2023/12/02 08:33:19;;;;;;;;;;;;;;;-3.44;76.30;100586.00;4221653;28;20051;-72
2023/12/02 08:35:21;;;;;;;;;;;;;;;-3.41;76.59;100586.78;4222654;28;20034;-66
2023/12/02 08:37:25;;;;;;;;;;;;;;;-3.38;76.89;100594.50;4222244;28;20007;-73
2023/12/02 08:39:27;;;;;;;;;;;;;;;-3.36;77.09;100593.47;4220714;28;20018;-72
2023/12/02 08:41:29;;;;;;;;;;;;;;;-3.34;77.26;100599.53;4220811;27;20019;-72
2023/12/02 08:43:31;;;;;;;;;;;;;;;-3.33;77.07;100595.91;4220759;28;20014;-72
2023/12/02 08:45:32;;;;;;;;;;;;;;;-3.31;76.91;100591.41;4221843;28;20018;-72
2023/12/02 08:47:34;;;;;;;;;;;;;;;-3.30;76.85;100598.38;4221553;28;20014;-71
2023/12/02 08:49:36;;;;;;;;;;;;;;;-3.29;76.80;100597.44;4219798;28;20023;-71
2023/12/02 08:51:39;;;;;;;;;;;;;;;-3.25;77.26;100603.38;4220849;28;20014;-72
2023/12/02 08:53:42;;;;;;;;;;;;;;;-3.25;77.27;100603.38;4218400;28;20402;-72
2023/12/02 08:55:44;;;;;;;;;;;;;;;-3.23;77.16;100598.84;4220975;28;20055;-72
2023/12/02 08:57:45;;;;;;;;;;;;;;;-3.20;77.39;100600.47;4217906;28;20665;-71
2023/12/02 08:59:47;;;;;;;;;;;;;;;-3.20;77.08;100601.31;4219078;28;19924;-72
2023/12/02 09:01:49;;;;;;;;;;;;;;;-3.18;77.13;100607.38;4221044;28;20014;-72
2023/12/02 09:03:51;;;;;;;;;;;;;;;-3.17;77.30;100600.28;4222662;28;20014;-71
2023/12/02 09:05:53;;;;;;;;;;;;;;;-3.15;77.26;100601.91;4220114;28;20019;-71
2023/12/02 09:07:56;;;;;;;;;;;;;;;-3.14;77.37;100594.81;4219395;28;20172;-71
2023/12/02 09:09:59;;;;;;;;;;;;;;;-3.13;77.45;100592.09;4220930;28;20023;-71
2023/12/02 09:12:01;;;;;;;;;;;;;;;-3.11;77.46;100592.84;4217771;28;20027;-71
2023/12/02 09:14:02;;;;;;;;;;;;;;;-3.09;77.57;100593.63;4221096;28;20374;-71
2023/12/02 09:16:05;;;;;;;;;;;;;;;-3.08;77.62;100594.47;4221090;28;20616;-71
2023/12/02 09:18:07;;;;;;;;;;;;;;;-3.05;78.08;100602.19;4220968;28;20337;-71
2023/12/02 09:20:17;;;;;;;;;;;;;;;-3.02;78.19;100598.53;4221078;28;20022;-72
2023/12/02 09:22:44;;;;;;;;;;;;;;;-3.02;78.28;100596.72;4220244;28;20418;-71
2023/12/02 09:24:46;;;;;;;;;;;;;;;-2.98;78.14;100600.03;4220087;28;20516;-72
2023/12/02 09:26:50;;;;;;;;;;;;;;;-2.96;77.96;100595.53;4220246;27;20066;-72
2023/12/02 09:28:52;;;;;;;;;;;;;;;-2.95;77.98;100592.75;4220043;28;20026;-72
2023/12/02 09:30:54;;;;;;;;;;;;;;;-2.92;77.87;100589.09;4218776;28;20444;-72
2023/12/02 09:32:56;;;;;;;;;;;;;;;-2.90;78.18;100589.81;4221059;28;20022;-73
2023/12/02 09:34:59;;;;;;;;;;;;;;;-2.88;78.20;100589.72;4219290;28;20027;-72
2023/12/02 09:37:02;;;;;;;;;;;;;;;-2.85;78.32;100595.69;4220091;28;20203;-73
2023/12/02 09:39:19;;;;;;;;;;;;;;;-2.84;78.13;100597.38;4221437;28;20473;-71
2023/12/02 09:41:34;;;;;;;;;;;;;;;-2.82;78.29;100603.44;4203652;28;20017;-71
2023/12/02 09:43:40;;;;;;;;;;;;;;;-2.79;78.48;100603.25;4221371;28;20014;-71
2023/12/02 09:45:43;;;;;;;;;;;;;;;-2.75;78.45;100599.47;4219556;28;20039;-70
2023/12/02 09:47:46;;;;;;;;;;;;;;;-2.69;78.75;100605.34;4220038;28;20010;-73
2023/12/02 09:49:55;;;;;;;;;;;;;;;-2.67;78.66;100599.00;4220115;28;20043;-72
2023/12/02 09:52:14;;;;;;;;;;;;;;;-2.61;78.67;100608.34;4220577;28;20018;-73
2023/12/02 09:54:18;;;;;;;;;;;;;;;-2.59;78.54;100602.00;4210229;28;20031;-73
2023/12/02 09:56:20;;;;;;;;;;;;;;;-2.53;78.51;100606.06;4218355;28;20026;-72
2023/12/02 09:58:24;;;;;;;;;;;;;;;-2.49;78.59;100604.06;4220033;28;20011;-73
2023/12/02 10:00:37;;;;;;;;;;;;;;;-2.45;78.47;100610.88;4218809;28;19924;-72
2023/12/02 10:02:57;;;;;;;;;;;;;;;-2.40;78.61;100612.28;4220104;28;20405;-72
2023/12/02 10:05:01;;;;;;;;;;;;;;;-2.36;78.26;100610.28;4220951;28;20011;-74
2023/12/02 10:07:04;;;;;;;;;;;;;;;-2.33;78.10;100611.91;4219674;28;20429;-72
2023/12/02 10:09:09;;;;;;;;;;;;;;;-2.32;78.04;100606.53;4220110;28;20015;-73
2023/12/02 10:11:13;;;;;;;;;;;;;;;-2.28;78.06;100605.34;4220474;28;20022;-74
2023/12/02 10:13:18;;;;;;;;;;;;;;;-2.26;77.78;100605.25;4220220;28;20014;-73
2023/12/02 10:15:20;;;;;;;;;;;;;;;-2.26;77.79;100600.81;4220696;28;20007;-72
2023/12/02 10:17:22;;;;;;;;;;;;;;;-2.21;77.87;100595.22;4220924;28;20023;-73
2023/12/02 10:19:26;;;;;;;;;;;;;;;-2.20;78.26;100589.84;4220642;28;20008;-73
2023/12/02 10:21:29;;;;;;;;;;;;;;;-2.15;78.24;100594.00;4221461;28;20389;-74
2023/12/02 10:23:32;;;;;;;;;;;;;;;-2.14;78.30;100596.53;4219625;28;20485;-73
2023/12/02 10:25:35;;;;;;;;;;;;;;;-2.13;78.03;100592.09;4221024;28;20019;-73
2023/12/02 10:27:37;;;;;;;;;;;;;;;-2.11;78.05;100585.75;4220404;28;20014;-72
2023/12/02 10:29:40;;;;;;;;;;;;;;;-2.08;77.87;100590.84;4220607;28;20015;-72